sensor_id;sensor_type;location;lat;lon;timestamp;P1;durP1;ratioP1;P2;durP2;ratioP2
39098;SDS011;24844;52.380;7.018;2024-03-08T00:00:18;66.90;;;33.28;;
39098;SDS011;24844;52.380;7.018;2024-03-08T00:02:45;69.47;;;35.03;;
39098;SDS011;24844;52.380;7.018;2024-03-08T00:05:11;58.92;;;31.58;;
39098;SDS011;24844;52.380;7.018;2024-03-08T00:07:38;67.63;;;35.05;;
39098;SDS011;24844;52.380;7.018;2024-03-08T00:10:04;57.70;;;32.88;;
39098;SDS011;24844;52.380;7.018;2024-03-08T00:12:32;65.97;;;33.72;;
39098;SDS011;24844;52.380;7.018;2024-03-08T00:14:58;64.43;;;33.65;;
39098;SDS011;24844;52.380;7.018;2024-03-08T00:17:23;65.13;;;34.97;;
39098;SDS011;24844;52.380;7.018;2024-03-08T00:19:50;78.25;;;35.97;;
39098;SDS011;24844;52.380;7.018;2024-03-08T00:22:16;69.97;;;34.50;;
39098;SDS011;24844;52.380;7.018;2024-03-08T00:24:42;63.92;;;34.88;;
39098;SDS011;24844;52.380;7.018;2024-03-08T00:27:08;71.47;;;36.28;;
39098;SDS011;24844;52.380;7.018;2024-03-08T00:29:35;68.40;;;35.17;;
39098;SDS011;24844;52.380;7.018;2024-03-08T00:32:00;72.93;;;34.80;;
39098;SDS011;24844;52.380;7.018;2024-03-08T00:34:26;61.65;;;34.33;;
39098;SDS011;24844;52.380;7.018;2024-03-08T00:36:52;64.78;;;33.45;;
39098;SDS011;24844;52.380;7.018;2024-03-08T00:39:18;67.75;;;36.75;;
39098;SDS011;24844;52.380;7.018;2024-03-08T00:41:45;67.22;;;33.97;;
39098;SDS011;24844;52.380;7.018;2024-03-08T00:44:11;64.82;;;34.97;;
39098;SDS011;24844;52.380;7.018;2024-03-08T00:46:37;65.53;;;35.67;;
39098;SDS011;24844;52.380;7.018;2024-03-08T00:49:03;69.80;;;35.15;;
39098;SDS011;24844;52.380;7.018;2024-03-08T00:51:28;67.80;;;34.15;;
39098;SDS011;24844;52.380;7.018;2024-03-08T00:53:54;62.92;;;33.72;;
39098;SDS011;24844;52.380;7.018;2024-03-08T00:56:20;65.13;;;34.95;;
39098;SDS011;24844;52.380;7.018;2024-03-08T00:58:45;58.03;;;32.35;;
39098;SDS011;24844;52.380;7.018;2024-03-08T01:01:12;65.65;;;35.78;;
39098;SDS011;24844;52.380;7.018;2024-03-08T01:03:42;61.75;;;33.45;;
39098;SDS011;24844;52.380;7.018;2024-03-08T01:06:08;57.00;;;32.07;;
39098;SDS011;24844;52.380;7.018;2024-03-08T01:08:34;60.88;;;34.85;;
39098;SDS011;24844;52.380;7.018;2024-03-08T01:10:59;61.17;;;34.90;;
39098;SDS011;24844;52.380;7.018;2024-03-08T01:13:25;59.85;;;33.95;;
39098;SDS011;24844;52.380;7.018;2024-03-08T01:15:51;64.88;;;34.95;;
39098;SDS011;24844;52.380;7.018;2024-03-08T01:18:16;59.60;;;33.95;;
39098;SDS011;24844;52.380;7.018;2024-03-08T01:20:42;56.50;;;34.65;;
39098;SDS011;24844;52.380;7.018;2024-03-08T01:23:07;56.83;;;33.75;;
39098;SDS011;24844;52.380;7.018;2024-03-08T01:25:33;55.58;;;27.42;;
39098;SDS011;24844;52.380;7.018;2024-03-08T01:27:59;54.63;;;31.70;;
39098;SDS011;24844;52.380;7.018;2024-03-08T01:30:24;48.05;;;23.55;;
39098;SDS011;24844;52.380;7.018;2024-03-08T01:32:50;59.65;;;30.73;;
39098;SDS011;24844;52.380;7.018;2024-03-08T01:35:15;60.15;;;33.47;;
39098;SDS011;24844;52.380;7.018;2024-03-08T01:37:41;52.72;;;31.48;;
39098;SDS011;24844;52.380;7.018;2024-03-08T01:40:07;57.40;;;32.17;;
39098;SDS011;24844;52.380;7.018;2024-03-08T01:42:33;52.70;;;30.67;;
39098;SDS011;24844;52.380;7.018;2024-03-08T01:45:02;54.42;;;31.40;;
39098;SDS011;24844;52.380;7.018;2024-03-08T01:47:31;57.65;;;30.45;;
39098;SDS011;24844;52.380;7.018;2024-03-08T01:49:58;50.30;;;29.88;;
39098;SDS011;24844;52.380;7.018;2024-03-08T01:52:26;51.67;;;29.85;;
39098;SDS011;24844;52.380;7.018;2024-03-08T01:54:53;55.95;;;30.70;;
39098;SDS011;24844;52.380;7.018;2024-03-08T01:57:19;52.50;;;31.10;;
39098;SDS011;24844;52.380;7.018;2024-03-08T01:59:45;51.70;;;29.73;;
39098;SDS011;24844;52.380;7.018;2024-03-08T02:02:12;59.67;;;32.92;;
39098;SDS011;24844;52.380;7.018;2024-03-08T02:04:40;53.85;;;29.80;;
39098;SDS011;24844;52.380;7.018;2024-03-08T02:07:05;58.60;;;33.88;;
39098;SDS011;24844;52.380;7.018;2024-03-08T02:09:31;48.65;;;26.30;;
39098;SDS011;24844;52.380;7.018;2024-03-08T02:11:57;54.17;;;31.23;;
39098;SDS011;24844;52.380;7.018;2024-03-08T02:14:22;49.28;;;29.88;;
39098;SDS011;24844;52.380;7.018;2024-03-08T02:16:48;60.80;;;33.70;;
39098;SDS011;24844;52.380;7.018;2024-03-08T02:19:16;52.33;;;31.45;;
39098;SDS011;24844;52.380;7.018;2024-03-08T02:21:41;54.30;;;31.30;;
39098;SDS011;24844;52.380;7.018;2024-03-08T02:24:08;57.83;;;34.10;;
39098;SDS011;24844;52.380;7.018;2024-03-08T02:26:34;53.60;;;31.38;;
39098;SDS011;24844;52.380;7.018;2024-03-08T02:28:59;55.58;;;31.77;;
39098;SDS011;24844;52.380;7.018;2024-03-08T02:31:25;57.55;;;33.38;;
39098;SDS011;24844;52.380;7.018;2024-03-08T02:33:50;53.25;;;31.15;;
39098;SDS011;24844;52.380;7.018;2024-03-08T02:36:16;56.92;;;31.55;;
39098;SDS011;24844;52.380;7.018;2024-03-08T02:38:41;54.30;;;29.20;;
39098;SDS011;24844;52.380;7.018;2024-03-08T02:41:07;50.22;;;33.00;;
39098;SDS011;24844;52.380;7.018;2024-03-08T02:43:33;57.33;;;33.72;;
39098;SDS011;24844;52.380;7.018;2024-03-08T02:45:59;56.28;;;33.47;;
39098;SDS011;24844;52.380;7.018;2024-03-08T02:48:25;53.80;;;33.13;;
39098;SDS011;24844;52.380;7.018;2024-03-08T02:50:50;53.72;;;30.75;;
39098;SDS011;24844;52.380;7.018;2024-03-08T02:53:16;57.80;;;33.25;;
39098;SDS011;24844;52.380;7.018;2024-03-08T02:55:43;53.63;;;32.50;;
39098;SDS011;24844;52.380;7.018;2024-03-08T02:58:09;60.05;;;34.05;;
39098;SDS011;24844;52.380;7.018;2024-03-08T03:00:35;61.45;;;34.10;;
39098;SDS011;24844;52.380;7.018;2024-03-08T03:03:01;61.00;;;34.55;;
39098;SDS011;24844;52.380;7.018;2024-03-08T03:05:28;54.10;;;33.42;;
39098;SDS011;24844;52.380;7.018;2024-03-08T03:07:54;59.30;;;34.47;;
39098;SDS011;24844;52.380;7.018;2024-03-08T03:10:20;56.38;;;31.48;;
39098;SDS011;24844;52.380;7.018;2024-03-08T03:12:46;53.60;;;33.90;;
39098;SDS011;24844;52.380;7.018;2024-03-08T03:15:13;58.58;;;34.67;;
39098;SDS011;24844;52.380;7.018;2024-03-08T03:17:39;56.47;;;32.22;;
39098;SDS011;24844;52.380;7.018;2024-03-08T03:20:06;56.20;;;34.10;;
39098;SDS011;24844;52.380;7.018;2024-03-08T03:22:37;55.65;;;33.78;;
39098;SDS011;24844;52.380;7.018;2024-03-08T03:25:03;53.08;;;30.70;;
39098;SDS011;24844;52.380;7.018;2024-03-08T03:27:29;57.15;;;34.10;;
39098;SDS011;24844;52.380;7.018;2024-03-08T03:29:55;58.60;;;35.38;;
39098;SDS011;24844;52.380;7.018;2024-03-08T03:32:22;57.50;;;34.50;;
39098;SDS011;24844;52.380;7.018;2024-03-08T03:34:48;56.65;;;34.75;;
39098;SDS011;24844;52.380;7.018;2024-03-08T03:37:17;57.78;;;34.63;;
39098;SDS011;24844;52.380;7.018;2024-03-08T03:42:16;63.10;;;34.25;;
39098;SDS011;24844;52.380;7.018;2024-03-08T03:44:46;54.72;;;32.33;;
39098;SDS011;24844;52.380;7.018;2024-03-08T03:47:12;58.38;;;33.40;;
39098;SDS011;24844;52.380;7.018;2024-03-08T03:49:39;52.40;;;32.72;;
39098;SDS011;24844;52.380;7.018;2024-03-08T03:52:05;55.30;;;32.60;;
39098;SDS011;24844;52.380;7.018;2024-03-08T03:54:31;57.92;;;32.40;;
39098;SDS011;24844;52.380;7.018;2024-03-08T03:56:57;58.35;;;35.35;;
39098;SDS011;24844;52.380;7.018;2024-03-08T03:59:23;51.92;;;33.20;;
39098;SDS011;24844;52.380;7.018;2024-03-08T04:01:49;57.95;;;36.25;;
39098;SDS011;24844;52.380;7.018;2024-03-08T04:04:15;55.88;;;36.58;;
39098;SDS011;24844;52.380;7.018;2024-03-08T04:06:41;60.13;;;34.72;;
39098;SDS011;24844;52.380;7.018;2024-03-08T04:09:06;59.55;;;36.35;;
39098;SDS011;24844;52.380;7.018;2024-03-08T04:11:32;57.78;;;35.50;;
39098;SDS011;24844;52.380;7.018;2024-03-08T04:13:58;65.80;;;37.20;;
39098;SDS011;24844;52.380;7.018;2024-03-08T04:16:23;56.70;;;34.55;;
39098;SDS011;24844;52.380;7.018;2024-03-08T04:18:50;61.78;;;36.90;;
39098;SDS011;24844;52.380;7.018;2024-03-08T04:21:16;59.22;;;35.90;;
39098;SDS011;24844;52.380;7.018;2024-03-08T04:23:44;63.15;;;37.40;;
39098;SDS011;24844;52.380;7.018;2024-03-08T04:26:10;62.35;;;36.63;;
39098;SDS011;24844;52.380;7.018;2024-03-08T04:28:35;63.55;;;39.50;;
39098;SDS011;24844;52.380;7.018;2024-03-08T04:31:02;65.88;;;39.03;;
39098;SDS011;24844;52.380;7.018;2024-03-08T04:33:31;62.03;;;37.53;;
39098;SDS011;24844;52.380;7.018;2024-03-08T04:35:57;61.75;;;38.67;;
39098;SDS011;24844;52.380;7.018;2024-03-08T04:38:23;62.45;;;36.92;;
39098;SDS011;24844;52.380;7.018;2024-03-08T04:40:49;63.15;;;36.92;;
39098;SDS011;24844;52.380;7.018;2024-03-08T04:43:15;59.33;;;34.88;;
39098;SDS011;24844;52.380;7.018;2024-03-08T04:45:43;67.00;;;35.85;;
39098;SDS011;24844;52.380;7.018;2024-03-08T04:48:09;61.72;;;34.83;;
39098;SDS011;24844;52.380;7.018;2024-03-08T04:50:35;64.18;;;37.45;;
39098;SDS011;24844;52.380;7.018;2024-03-08T04:53:00;61.53;;;35.85;;
39098;SDS011;24844;52.380;7.018;2024-03-08T04:55:26;64.20;;;39.97;;
39098;SDS011;24844;52.380;7.018;2024-03-08T04:57:51;67.40;;;38.60;;
39098;SDS011;24844;52.380;7.018;2024-03-08T05:00:18;64.82;;;37.03;;
39098;SDS011;24844;52.380;7.018;2024-03-08T05:02:44;62.88;;;37.13;;
39098;SDS011;24844;52.380;7.018;2024-03-08T05:05:09;64.45;;;37.65;;
39098;SDS011;24844;52.380;7.018;2024-03-08T05:07:37;65.63;;;39.65;;
39098;SDS011;24844;52.380;7.018;2024-03-08T05:10:04;68.50;;;38.42;;
39098;SDS011;24844;52.380;7.018;2024-03-08T05:12:31;64.85;;;36.85;;
39098;SDS011;24844;52.380;7.018;2024-03-08T05:14:57;69.85;;;39.55;;
39098;SDS011;24844;52.380;7.018;2024-03-08T05:17:23;67.00;;;39.20;;
39098;SDS011;24844;52.380;7.018;2024-03-08T05:19:49;65.30;;;36.58;;
39098;SDS011;24844;52.380;7.018;2024-03-08T05:22:15;64.85;;;37.05;;
39098;SDS011;24844;52.380;7.018;2024-03-08T05:24:42;63.22;;;37.75;;
39098;SDS011;24844;52.380;7.018;2024-03-08T05:27:08;63.63;;;38.63;;
39098;SDS011;24844;52.380;7.018;2024-03-08T05:29:33;73.10;;;39.80;;
39098;SDS011;24844;52.380;7.018;2024-03-08T05:31:59;63.83;;;35.03;;
39098;SDS011;24844;52.380;7.018;2024-03-08T05:34:24;64.90;;;38.83;;
39098;SDS011;24844;52.380;7.018;2024-03-08T05:36:51;67.20;;;40.28;;
39098;SDS011;24844;52.380;7.018;2024-03-08T05:39:17;70.18;;;40.25;;
39098;SDS011;24844;52.380;7.018;2024-03-08T05:41:43;73.57;;;40.42;;
39098;SDS011;24844;52.380;7.018;2024-03-08T05:44:09;66.07;;;40.33;;
39098;SDS011;24844;52.380;7.018;2024-03-08T05:46:35;70.32;;;40.28;;
39098;SDS011;24844;52.380;7.018;2024-03-08T05:49:05;65.93;;;40.15;;
39098;SDS011;24844;52.380;7.018;2024-03-08T05:51:32;65.22;;;38.95;;
39098;SDS011;24844;52.380;7.018;2024-03-08T05:54:00;67.20;;;39.53;;
39098;SDS011;24844;52.380;7.018;2024-03-08T05:56:30;68.32;;;40.28;;
39098;SDS011;24844;52.380;7.018;2024-03-08T05:58:56;64.72;;;37.25;;
39098;SDS011;24844;52.380;7.018;2024-03-08T06:01:23;152.73;;;40.47;;
39098;SDS011;24844;52.380;7.018;2024-03-08T06:03:49;66.80;;;38.78;;
39098;SDS011;24844;52.380;7.018;2024-03-08T06:06:15;68.82;;;41.42;;
39098;SDS011;24844;52.380;7.018;2024-03-08T06:08:40;71.53;;;41.10;;
39098;SDS011;24844;52.380;7.018;2024-03-08T06:11:08;71.05;;;42.08;;
39098;SDS011;24844;52.380;7.018;2024-03-08T06:13:34;67.93;;;40.55;;
39098;SDS011;24844;52.380;7.018;2024-03-08T06:16:00;67.22;;;39.22;;
39098;SDS011;24844;52.380;7.018;2024-03-08T06:18:30;68.10;;;40.53;;
39098;SDS011;24844;52.380;7.018;2024-03-08T06:20:56;62.45;;;37.70;;
39098;SDS011;24844;52.380;7.018;2024-03-08T06:23:22;67.13;;;39.17;;
39098;SDS011;24844;52.380;7.018;2024-03-08T06:25:47;66.93;;;40.03;;
39098;SDS011;24844;52.380;7.018;2024-03-08T06:28:13;68.55;;;38.92;;
39098;SDS011;24844;52.380;7.018;2024-03-08T06:30:39;63.88;;;39.20;;
39098;SDS011;24844;52.380;7.018;2024-03-08T06:33:05;63.70;;;36.15;;
39098;SDS011;24844;52.380;7.018;2024-03-08T06:35:30;63.13;;;38.38;;
39098;SDS011;24844;52.380;7.018;2024-03-08T06:38:02;63.28;;;37.58;;
39098;SDS011;24844;52.380;7.018;2024-03-08T06:40:31;63.42;;;37.67;;
39098;SDS011;24844;52.380;7.018;2024-03-08T06:42:56;58.70;;;35.75;;
39098;SDS011;24844;52.380;7.018;2024-03-08T06:45:22;60.85;;;36.00;;
39098;SDS011;24844;52.380;7.018;2024-03-08T06:47:48;62.33;;;35.28;;
39098;SDS011;24844;52.380;7.018;2024-03-08T06:50:14;64.00;;;35.65;;
39098;SDS011;24844;52.380;7.018;2024-03-08T06:52:40;57.75;;;35.20;;
39098;SDS011;24844;52.380;7.018;2024-03-08T06:55:07;58.90;;;35.53;;
39098;SDS011;24844;52.380;7.018;2024-03-08T06:57:37;56.20;;;34.08;;
39098;SDS011;24844;52.380;7.018;2024-03-08T07:00:07;60.90;;;33.95;;
39098;SDS011;24844;52.380;7.018;2024-03-08T07:02:40;56.95;;;33.83;;
39098;SDS011;24844;52.380;7.018;2024-03-08T07:05:06;56.47;;;35.00;;
39098;SDS011;24844;52.380;7.018;2024-03-08T07:07:35;56.67;;;34.80;;
39098;SDS011;24844;52.380;7.018;2024-03-08T07:10:03;54.80;;;33.65;;
39098;SDS011;24844;52.380;7.018;2024-03-08T07:12:29;48.47;;;29.27;;
39098;SDS011;24844;52.380;7.018;2024-03-08T07:14:55;53.22;;;31.55;;
39098;SDS011;24844;52.380;7.018;2024-03-08T07:17:20;53.35;;;33.95;;
39098;SDS011;24844;52.380;7.018;2024-03-08T07:19:46;52.35;;;29.48;;
39098;SDS011;24844;52.380;7.018;2024-03-08T07:22:12;53.35;;;31.25;;
39098;SDS011;24844;52.380;7.018;2024-03-08T07:24:37;52.08;;;30.13;;
39098;SDS011;24844;52.380;7.018;2024-03-08T07:27:41;58.08;;;32.13;;
39098;SDS011;24844;52.380;7.018;2024-03-08T07:30:07;47.72;;;30.75;;
39098;SDS011;24844;52.380;7.018;2024-03-08T07:32:35;51.40;;;31.13;;
39098;SDS011;24844;52.380;7.018;2024-03-08T07:35:01;47.05;;;27.90;;
39098;SDS011;24844;52.380;7.018;2024-03-08T07:37:27;56.95;;;32.92;;
39098;SDS011;24844;52.380;7.018;2024-03-08T07:39:52;54.15;;;33.40;;
39098;SDS011;24844;52.380;7.018;2024-03-08T07:42:18;50.08;;;31.40;;
39098;SDS011;24844;52.380;7.018;2024-03-08T07:44:43;47.88;;;31.05;;
39098;SDS011;24844;52.380;7.018;2024-03-08T07:47:10;47.72;;;30.63;;
39098;SDS011;24844;52.380;7.018;2024-03-08T07:49:37;49.28;;;29.05;;
39098;SDS011;24844;52.380;7.018;2024-03-08T07:52:03;51.03;;;32.05;;
39098;SDS011;24844;52.380;7.018;2024-03-08T07:54:29;52.42;;;33.10;;
39098;SDS011;24844;52.380;7.018;2024-03-08T07:56:55;49.00;;;31.10;;
39098;SDS011;24844;52.380;7.018;2024-03-08T07:59:21;50.47;;;31.58;;
39098;SDS011;24844;52.380;7.018;2024-03-08T08:01:46;51.75;;;30.33;;
39098;SDS011;24844;52.380;7.018;2024-03-08T08:04:12;40.13;;;24.67;;
39098;SDS011;24844;52.380;7.018;2024-03-08T08:06:40;53.65;;;32.35;;
39098;SDS011;24844;52.380;7.018;2024-03-08T08:09:07;50.30;;;30.98;;
39098;SDS011;24844;52.380;7.018;2024-03-08T08:11:39;48.05;;;30.02;;
39098;SDS011;24844;52.380;7.018;2024-03-08T08:14:09;45.60;;;29.85;;
39098;SDS011;24844;52.380;7.018;2024-03-08T08:16:38;37.13;;;21.05;;
39098;SDS011;24844;52.380;7.018;2024-03-08T08:19:06;47.22;;;29.80;;
39098;SDS011;24844;52.380;7.018;2024-03-08T08:21:35;39.05;;;22.77;;
39098;SDS011;24844;52.380;7.018;2024-03-08T08:24:02;49.40;;;29.33;;
39098;SDS011;24844;52.380;7.018;2024-03-08T08:26:31;41.70;;;28.38;;
39098;SDS011;24844;52.380;7.018;2024-03-08T08:28:57;43.33;;;27.95;;
39098;SDS011;24844;52.380;7.018;2024-03-08T08:31:24;41.53;;;28.55;;
39098;SDS011;24844;52.380;7.018;2024-03-08T08:33:50;39.47;;;27.33;;
39098;SDS011;24844;52.380;7.018;2024-03-08T08:36:17;40.95;;;28.80;;
39098;SDS011;24844;52.380;7.018;2024-03-08T08:38:43;39.22;;;27.27;;
39098;SDS011;24844;52.380;7.018;2024-03-08T08:41:09;38.92;;;24.38;;
39098;SDS011;24844;52.380;7.018;2024-03-08T08:43:36;40.63;;;27.20;;
39098;SDS011;24844;52.380;7.018;2024-03-08T08:46:01;36.75;;;26.17;;
39098;SDS011;24844;52.380;7.018;2024-03-08T08:48:27;38.25;;;27.13;;
39098;SDS011;24844;52.380;7.018;2024-03-08T08:50:55;44.72;;;28.00;;
39098;SDS011;24844;52.380;7.018;2024-03-08T08:53:21;38.63;;;24.15;;
39098;SDS011;24844;52.380;7.018;2024-03-08T08:55:47;36.05;;;24.55;;
39098;SDS011;24844;52.380;7.018;2024-03-08T08:58:12;36.40;;;21.55;;
39098;SDS011;24844;52.380;7.018;2024-03-08T09:00:39;38.22;;;25.65;;
39098;SDS011;24844;52.380;7.018;2024-03-08T09:03:04;35.67;;;23.92;;
39098;SDS011;24844;52.380;7.018;2024-03-08T09:05:31;39.28;;;25.27;;
39098;SDS011;24844;52.380;7.018;2024-03-08T09:07:58;34.17;;;24.00;;
39098;SDS011;24844;52.380;7.018;2024-03-08T09:10:25;38.30;;;24.08;;
39098;SDS011;24844;52.380;7.018;2024-03-08T09:12:50;36.63;;;19.70;;
39098;SDS011;24844;52.380;7.018;2024-03-08T09:15:16;31.85;;;23.60;;
39098;SDS011;24844;52.380;7.018;2024-03-08T09:17:42;37.22;;;25.45;;
39098;SDS011;24844;52.380;7.018;2024-03-08T09:20:09;38.72;;;23.92;;
39098;SDS011;24844;52.380;7.018;2024-03-08T09:22:39;35.10;;;23.63;;
39098;SDS011;24844;52.380;7.018;2024-03-08T09:25:05;30.27;;;17.88;;
39098;SDS011;24844;52.380;7.018;2024-03-08T09:27:32;38.15;;;25.15;;
39098;SDS011;24844;52.380;7.018;2024-03-08T09:29:59;33.05;;;24.23;;
39098;SDS011;24844;52.380;7.018;2024-03-08T09:32:24;34.03;;;23.02;;
39098;SDS011;24844;52.380;7.018;2024-03-08T09:34:51;32.97;;;24.27;;
39098;SDS011;24844;52.380;7.018;2024-03-08T09:37:17;30.65;;;23.17;;
39098;SDS011;24844;52.380;7.018;2024-03-08T09:39:43;37.20;;;26.95;;
39098;SDS011;24844;52.380;7.018;2024-03-08T09:42:09;35.05;;;22.77;;
39098;SDS011;24844;52.380;7.018;2024-03-08T09:44:35;37.92;;;26.58;;
39098;SDS011;24844;52.380;7.018;2024-03-08T09:47:01;32.17;;;24.38;;
39098;SDS011;24844;52.380;7.018;2024-03-08T09:49:29;35.80;;;25.70;;
39098;SDS011;24844;52.380;7.018;2024-03-08T09:51:55;36.22;;;23.95;;
39098;SDS011;24844;52.380;7.018;2024-03-08T09:54:21;35.15;;;26.30;;
39098;SDS011;24844;52.380;7.018;2024-03-08T09:56:47;33.58;;;24.58;;
39098;SDS011;24844;52.380;7.018;2024-03-08T09:59:14;37.17;;;25.42;;
39098;SDS011;24844;52.380;7.018;2024-03-08T10:01:59;42.63;;;27.67;;
39098;SDS011;24844;52.380;7.018;2024-03-08T10:04:25;38.60;;;26.70;;
39098;SDS011;24844;52.380;7.018;2024-03-08T10:06:55;35.47;;;26.58;;
39098;SDS011;24844;52.380;7.018;2024-03-08T10:09:25;37.42;;;25.67;;
39098;SDS011;24844;52.380;7.018;2024-03-08T10:11:55;36.17;;;25.60;;
39098;SDS011;24844;52.380;7.018;2024-03-08T10:14:22;37.22;;;26.10;;
39098;SDS011;24844;52.380;7.018;2024-03-08T10:16:49;34.45;;;23.63;;
39098;SDS011;24844;52.380;7.018;2024-03-08T10:19:14;34.00;;;24.65;;
39098;SDS011;24844;52.380;7.018;2024-03-08T10:21:48;41.22;;;26.52;;
39098;SDS011;24844;52.380;7.018;2024-03-08T10:24:18;35.90;;;25.10;;
39098;SDS011;24844;52.380;7.018;2024-03-08T10:26:45;36.75;;;27.05;;
39098;SDS011;24844;52.380;7.018;2024-03-08T10:29:10;40.30;;;26.55;;
39098;SDS011;24844;52.380;7.018;2024-03-08T10:31:42;37.33;;;28.65;;
39098;SDS011;24844;52.380;7.018;2024-03-08T10:34:09;37.22;;;26.42;;
39098;SDS011;24844;52.380;7.018;2024-03-08T10:36:35;37.83;;;27.73;;
39098;SDS011;24844;52.380;7.018;2024-03-08T10:39:03;41.78;;;27.60;;
39098;SDS011;24844;52.380;7.018;2024-03-08T10:41:46;32.50;;;24.58;;
39098;SDS011;24844;52.380;7.018;2024-03-08T10:49:45;44.25;;;27.35;;
39098;SDS011;24844;52.380;7.018;2024-03-08T10:52:31;38.95;;;27.65;;
39098;SDS011;24844;52.380;7.018;2024-03-08T10:54:57;40.65;;;28.08;;
39098;SDS011;24844;52.380;7.018;2024-03-08T10:57:24;42.47;;;28.55;;
39098;SDS011;24844;52.380;7.018;2024-03-08T10:59:50;40.75;;;28.05;;
39098;SDS011;24844;52.380;7.018;2024-03-08T11:02:17;38.70;;;26.50;;
39098;SDS011;24844;52.380;7.018;2024-03-08T11:04:48;37.63;;;26.17;;
39098;SDS011;24844;52.380;7.018;2024-03-08T11:07:14;37.30;;;27.70;;
39098;SDS011;24844;52.380;7.018;2024-03-08T11:09:43;40.53;;;28.77;;
39098;SDS011;24844;52.380;7.018;2024-03-08T11:12:18;40.72;;;28.40;;
39098;SDS011;24844;52.380;7.018;2024-03-08T11:14:45;34.88;;;26.13;;
39098;SDS011;24844;52.380;7.018;2024-03-08T11:17:13;36.28;;;26.67;;
39098;SDS011;24844;52.380;7.018;2024-03-08T11:19:45;33.75;;;26.85;;
39098;SDS011;24844;52.380;7.018;2024-03-08T11:22:13;34.83;;;27.60;;
39098;SDS011;24844;52.380;7.018;2024-03-08T11:24:47;35.22;;;26.65;;
39098;SDS011;24844;52.380;7.018;2024-03-08T11:27:13;36.92;;;26.95;;
39098;SDS011;24844;52.380;7.018;2024-03-08T11:29:38;36.67;;;27.60;;
39098;SDS011;24844;52.380;7.018;2024-03-08T11:32:08;36.67;;;27.33;;
39098;SDS011;24844;52.380;7.018;2024-03-08T11:34:35;34.22;;;26.40;;
39098;SDS011;24844;52.380;7.018;2024-03-08T11:37:05;34.95;;;26.33;;
39098;SDS011;24844;52.380;7.018;2024-03-08T11:39:34;37.95;;;28.67;;
39098;SDS011;24844;52.380;7.018;2024-03-08T11:42:02;40.25;;;29.15;;
39098;SDS011;24844;52.380;7.018;2024-03-08T11:44:29;35.05;;;27.83;;
39098;SDS011;24844;52.380;7.018;2024-03-08T11:46:56;38.95;;;28.58;;
39098;SDS011;24844;52.380;7.018;2024-03-08T11:49:22;39.20;;;28.17;;
39098;SDS011;24844;52.380;7.018;2024-03-08T11:51:51;41.70;;;29.10;;
39098;SDS011;24844;52.380;7.018;2024-03-08T11:54:17;34.83;;;27.08;;
39098;SDS011;24844;52.380;7.018;2024-03-08T11:56:44;34.08;;;24.92;;
39098;SDS011;24844;52.380;7.018;2024-03-08T11:59:12;35.05;;;25.58;;
39098;SDS011;24844;52.380;7.018;2024-03-08T12:01:38;35.22;;;25.58;;
39098;SDS011;24844;52.380;7.018;2024-03-08T12:04:04;36.45;;;27.00;;
39098;SDS011;24844;52.380;7.018;2024-03-08T12:06:37;39.92;;;27.30;;
39098;SDS011;24844;52.380;7.018;2024-03-08T12:09:04;34.15;;;26.08;;
39098;SDS011;24844;52.380;7.018;2024-03-08T12:11:34;33.60;;;24.15;;
39098;SDS011;24844;52.380;7.018;2024-03-08T12:14:00;35.05;;;24.95;;
39098;SDS011;24844;52.380;7.018;2024-03-08T12:16:26;36.60;;;26.98;;
39098;SDS011;24844;52.380;7.018;2024-03-08T12:18:52;34.58;;;26.52;;
39098;SDS011;24844;52.380;7.018;2024-03-08T12:21:18;36.38;;;26.30;;
39098;SDS011;24844;52.380;7.018;2024-03-08T12:24:10;38.47;;;27.13;;
39098;SDS011;24844;52.380;7.018;2024-03-08T12:26:36;36.20;;;26.55;;
39098;SDS011;24844;52.380;7.018;2024-03-08T12:29:19;44.60;;;26.70;;
39098;SDS011;24844;52.380;7.018;2024-03-08T12:31:47;37.95;;;23.98;;
39098;SDS011;24844;52.380;7.018;2024-03-08T12:34:20;35.03;;;25.40;;
39098;SDS011;24844;52.380;7.018;2024-03-08T12:36:49;37.85;;;26.73;;
39098;SDS011;24844;52.380;7.018;2024-03-08T12:39:19;36.80;;;26.65;;
39098;SDS011;24844;52.380;7.018;2024-03-08T12:41:55;29.83;;;20.83;;
39098;SDS011;24844;52.380;7.018;2024-03-08T12:44:25;34.58;;;26.30;;
39098;SDS011;24844;52.380;7.018;2024-03-08T12:46:51;37.03;;;25.42;;
39098;SDS011;24844;52.380;7.018;2024-03-08T12:49:18;35.10;;;27.13;;
39098;SDS011;24844;52.380;7.018;2024-03-08T12:51:47;33.92;;;24.55;;
39098;SDS011;24844;52.380;7.018;2024-03-08T12:54:13;32.80;;;26.05;;
39098;SDS011;24844;52.380;7.018;2024-03-08T12:56:38;36.00;;;24.52;;
39098;SDS011;24844;52.380;7.018;2024-03-08T12:59:05;32.55;;;23.70;;
39098;SDS011;24844;52.380;7.018;2024-03-08T13:01:35;33.50;;;23.08;;
39098;SDS011;24844;52.380;7.018;2024-03-08T13:04:04;32.75;;;24.80;;
39098;SDS011;24844;52.380;7.018;2024-03-08T13:06:31;31.53;;;24.47;;
39098;SDS011;24844;52.380;7.018;2024-03-08T13:08:57;32.75;;;26.10;;
39098;SDS011;24844;52.380;7.018;2024-03-08T13:11:24;33.03;;;24.77;;
39098;SDS011;24844;52.380;7.018;2024-03-08T13:13:50;32.28;;;24.00;;
39098;SDS011;24844;52.380;7.018;2024-03-08T13:16:16;32.00;;;26.15;;
39098;SDS011;24844;52.380;7.018;2024-03-08T13:18:43;33.35;;;24.48;;
39098;SDS011;24844;52.380;7.018;2024-03-08T13:21:10;30.02;;;21.30;;
39098;SDS011;24844;52.380;7.018;2024-03-08T13:23:39;33.55;;;23.95;;
39098;SDS011;24844;52.380;7.018;2024-03-08T13:26:10;32.30;;;23.50;;
39098;SDS011;24844;52.380;7.018;2024-03-08T13:28:42;31.73;;;23.38;;
39098;SDS011;24844;52.380;7.018;2024-03-08T13:31:12;28.52;;;20.27;;
39098;SDS011;24844;52.380;7.018;2024-03-08T13:33:39;33.35;;;23.70;;
39098;SDS011;24844;52.380;7.018;2024-03-08T13:36:07;38.17;;;23.52;;
39098;SDS011;24844;52.380;7.018;2024-03-08T13:38:39;30.55;;;23.45;;
39098;SDS011;24844;52.380;7.018;2024-03-08T13:43:33;31.35;;;23.90;;
39098;SDS011;24844;52.380;7.018;2024-03-08T13:46:01;34.92;;;25.08;;
39098;SDS011;24844;52.380;7.018;2024-03-08T13:48:27;36.38;;;24.00;;
39098;SDS011;24844;52.380;7.018;2024-03-08T13:50:53;33.83;;;24.95;;
39098;SDS011;24844;52.380;7.018;2024-03-08T13:53:19;28.15;;;20.98;;
39098;SDS011;24844;52.380;7.018;2024-03-08T13:55:45;32.92;;;24.30;;
39098;SDS011;24844;52.380;7.018;2024-03-08T13:58:10;33.60;;;25.35;;
39098;SDS011;24844;52.380;7.018;2024-03-08T14:00:38;34.03;;;26.27;;
39098;SDS011;24844;52.380;7.018;2024-03-08T14:03:06;35.70;;;24.13;;
39098;SDS011;24844;52.380;7.018;2024-03-08T14:05:32;33.25;;;24.85;;
39098;SDS011;24844;52.380;7.018;2024-03-08T14:08:01;35.90;;;25.52;;
39098;SDS011;24844;52.380;7.018;2024-03-08T14:10:32;32.10;;;25.15;;
39098;SDS011;24844;52.380;7.018;2024-03-08T14:12:58;35.03;;;25.35;;
39098;SDS011;24844;52.380;7.018;2024-03-08T14:15:23;32.03;;;23.10;;
39098;SDS011;24844;52.380;7.018;2024-03-08T14:17:53;33.08;;;23.10;;
39098;SDS011;24844;52.380;7.018;2024-03-08T14:20:19;30.75;;;23.10;;
39098;SDS011;24844;52.380;7.018;2024-03-08T14:22:48;32.97;;;26.17;;
39098;SDS011;24844;52.380;7.018;2024-03-08T14:25:13;33.13;;;25.13;;
39098;SDS011;24844;52.380;7.018;2024-03-08T14:27:43;36.97;;;25.98;;
39098;SDS011;24844;52.380;7.018;2024-03-08T14:30:09;37.17;;;25.85;;